Time;durP1;ratioP1;P1;durP2;ratioP2;P2;SDS_P1;SDS_P2;PMS_P1;PMS_P2;Temp;Humidity;BMP_temperature;BMP_pressure;BME280_temperature;BME280_humidity;BME280_pressure;Samples;Min_cycle;Max_cycle;Signal;HPM_P1;HPM_P2
2022/02/17 00:01:47;;;;;;;0.52;0.52;;;11.20;98.00;;;;;;5030554;28;20025;-68
2022/02/17 00:04:12;;;;;;;1.60;0.80;;;11.20;98.00;;;;;;5032733;28;20029;-68
2022/02/17 00:06:38;;;;;;;1.35;0.60;;;11.20;98.00;;;;;;5034914;28;20036;-68
2022/02/17 00:09:04;;;;;;;1.52;0.60;;;11.10;98.00;;;;;;5035409;28;20029;-68
2022/02/17 00:11:29;;;;;;;0.70;0.60;;;11.30;97.90;;;;;;5033599;28;20677;-67
2022/02/17 00:13:55;;;;;;;0.68;0.50;;;11.40;97.50;;;;;;5034815;28;20026;-68
2022/02/17 00:16:20;;;;;;;0.50;0.50;;;11.40;97.50;;;;;;5033664;28;20022;-67
2022/02/17 00:18:46;;;;;;;0.50;0.50;;;11.40;97.50;;;;;;5041981;28;20034;-68
2022/02/17 00:21:12;;;;;;;0.52;0.52;;;11.40;97.50;;;;;;5033365;28;20108;-68
2022/02/17 00:23:37;;;;;;;0.50;0.50;;;11.40;97.40;;;;;;5035378;28;20022;-68
2022/02/17 00:26:03;;;;;;;1.85;0.70;;;11.40;97.20;;;;;;5033468;28;20083;-68
2022/02/17 00:28:29;;;;;;;0.50;0.50;;;11.40;97.20;;;;;;5033783;28;20026;-68
2022/02/17 00:30:54;;;;;;;0.50;0.50;;;11.40;97.10;;;;;;5032687;28;20022;-68
2022/02/17 00:33:20;;;;;;;1.00;0.60;;;11.40;97.20;;;;;;5030898;28;20045;-68
2022/02/17 00:35:46;;;;;;;0.50;0.50;;;11.40;97.20;;;;;;5034569;28;20316;-68
2022/02/17 00:38:12;;;;;;;0.50;0.50;;;11.30;97.20;;;;;;5034358;28;20032;-67
2022/02/17 00:40:38;;;;;;;0.55;0.55;;;11.30;97.10;;;;;;5034885;28;20037;-68
2022/02/17 00:43:03;;;;;;;0.50;0.50;;;11.30;96.90;;;;;;5033669;28;20450;-68
2022/02/17 00:45:29;;;;;;;0.65;0.50;;;11.40;96.70;;;;;;5036356;28;20115;-67
2022/02/17 00:47:55;;;;;;;0.68;0.55;;;11.40;96.40;;;;;;5033965;28;20431;-67
2022/02/17 00:50:20;;;;;;;0.50;0.50;;;11.40;96.30;;;;;;5032786;28;20472;-68
2022/02/17 00:52:46;;;;;;;0.60;0.60;;;11.40;96.00;;;;;;5030909;28;20025;-67
2022/02/17 00:55:12;;;;;;;0.70;0.50;;;11.50;95.40;;;;;;5034158;28;20422;-68
2022/02/17 00:57:37;;;;;;;0.50;0.50;;;11.60;94.90;;;;;;5029286;28;20041;-67
2022/02/17 01:00:05;;;;;;;1.00;0.50;;;11.60;95.00;;;;;;5033019;28;20026;-68
2022/02/17 01:02:30;;;;;;;1.48;0.50;;;11.60;94.60;;;;;;5032597;28;20125;-67
2022/02/17 01:04:56;;;;;;;0.73;0.60;;;11.60;94.40;;;;;;5037996;28;20457;-67
2022/02/17 01:07:22;;;;;;;0.50;0.50;;;11.60;94.30;;;;;;5036014;28;20289;-67
2022/02/17 01:09:47;;;;;;;0.50;0.50;;;11.60;94.40;;;;;;5041678;28;20365;-67
2022/02/17 01:12:13;;;;;;;0.70;0.50;;;11.60;94.40;;;;;;5038678;28;20463;-67
2022/02/17 01:14:39;;;;;;;0.50;0.50;;;11.60;94.40;;;;;;5037752;28;20025;-68
2022/02/17 01:17:04;;;;;;;0.50;0.50;;;11.50;94.60;;;;;;5037764;28;20026;-68
2022/02/17 01:19:30;;;;;;;0.50;0.50;;;11.50;94.70;;;;;;5037257;28;20097;-68
2022/02/17 01:21:56;;;;;;;0.65;0.60;;;11.50;94.70;;;;;;5035537;28;20032;-68
2022/02/17 01:24:22;;;;;;;0.90;0.50;;;11.50;94.60;;;;;;5037308;28;20030;-67
2022/02/17 01:26:48;;;;;;;1.83;0.50;;;11.50;94.70;;;;;;5037667;28;20079;-67
2022/02/17 01:29:14;;;;;;;0.75;0.50;;;11.50;94.90;;;;;;5042089;28;20373;-67
2022/02/17 01:31:40;;;;;;;0.60;0.60;;;11.50;95.00;;;;;;5034877;28;21364;-67
2022/02/17 01:34:08;;;;;;;0.50;0.50;;;11.50;95.20;;;;;;5037049;28;20112;-67
2022/02/17 01:36:33;;;;;;;1.02;0.50;;;11.50;95.30;;;;;;5038188;28;20013;-67
2022/02/17 01:38:59;;;;;;;1.63;0.60;;;11.50;95.50;;;;;;5038627;28;20033;-67
2022/02/17 01:41:25;;;;;;;2.50;0.70;;;11.40;95.90;;;;;;5037308;28;20033;-67
2022/02/17 01:43:51;;;;;;;0.50;0.50;;;11.30;96.30;;;;;;5037318;28;20307;-67
2022/02/17 01:46:30;;;;;;;0.50;0.50;;;11.20;97.00;;;;;;5037850;28;20022;-67
2022/02/17 01:48:56;;;;;;;0.80;0.60;;;11.10;97.00;;;;;;5034953;28;20033;-67
2022/02/17 01:51:21;;;;;;;1.38;0.60;;;11.20;96.90;;;;;;5037446;28;20030;-67
2022/02/17 01:53:47;;;;;;;1.00;0.60;;;11.20;96.70;;;;;;5032601;28;20037;-67
2022/02/17 01:56:12;;;;;;;1.38;0.68;;;11.30;96.50;;;;;;5034571;28;20026;-67
2022/02/17 01:58:39;;;;;;;0.50;0.50;;;11.40;96.20;;;;;;5038209;28;20304;-67
2022/02/17 02:01:04;;;;;;;0.65;0.50;;;11.40;96.40;;;;;;5035425;28;20127;-67
2022/02/17 02:03:30;;;;;;;0.55;0.50;;;11.50;96.10;;;;;;5033043;28;20371;-67
2022/02/17 02:05:56;;;;;;;2.58;0.60;;;11.50;96.20;;;;;;5036863;28;20483;-68
2022/02/17 02:08:22;;;;;;;0.80;0.50;;;11.40;96.20;;;;;;5036976;28;20030;-68
2022/02/17 02:10:47;;;;;;;0.73;0.60;;;11.40;96.30;;;;;;5037222;28;20025;-68
2022/02/17 02:13:13;;;;;;;0.50;0.50;;;11.40;96.40;;;;;;5033173;28;20030;-67
2022/02/17 02:15:45;;;;;;;0.52;0.50;;;11.40;96.30;;;;;;5037477;28;20327;-68
2022/02/17 02:18:11;;;;;;;0.45;0.45;;;11.50;96.20;;;;;;5050904;28;20418;-67
2022/02/17 02:21:03;;;;;;;0.70;0.50;;;11.50;96.20;;;;;;5037366;28;20128;-66
2022/02/17 02:23:33;;;;;;;0.50;0.50;;;11.50;96.00;;;;;;5035203;28;20042;-67
2022/02/17 02:25:59;;;;;;;1.70;0.50;;;11.50;95.90;;;;;;5037441;28;20053;-67
2022/02/17 02:28:27;;;;;;;0.40;0.40;;;11.50;96.00;;;;;;5034309;28;20040;-67
2022/02/17 02:30:54;;;;;;;0.50;0.50;;;11.40;96.40;;;;;;5036288;28;20018;-66
2022/02/17 02:33:21;;;;;;;0.50;0.50;;;11.40;96.60;;;;;;5032658;28;20072;-67
2022/02/17 02:35:47;;;;;;;0.50;0.50;;;11.40;96.60;;;;;;5036919;28;20036;-67
2022/02/17 02:38:14;;;;;;;0.50;0.50;;;11.40;96.60;;;;;;5035109;28;20022;-66
2022/02/17 02:40:40;;;;;;;0.50;0.50;;;11.50;96.50;;;;;;5036969;28;20084;-66
2022/02/17 02:43:06;;;;;;;1.75;0.60;;;11.50;96.60;;;;;;5035477;28;20434;-66
2022/02/17 02:45:33;;;;;;;0.50;0.50;;;11.40;96.80;;;;;;5035920;28;20056;-66
2022/02/17 02:48:07;;;;;;;0.40;0.40;;;11.30;97.10;;;;;;5032967;28;20048;-66
2022/02/17 02:50:33;;;;;;;1.42;0.50;;;11.30;97.30;;;;;;5036744;28;20028;-68
2022/02/17 02:52:59;;;;;;;0.68;0.60;;;11.20;97.50;;;;;;5032346;28;20029;-67
2022/02/17 02:55:26;;;;;;;0.55;0.50;;;11.10;98.00;;;;;;5041811;28;20037;-67
2022/02/17 02:57:52;;;;;;;0.50;0.50;;;11.00;98.00;;;;;;5032084;28;20091;-66
2022/02/17 03:00:21;;;;;;;0.50;0.50;;;11.00;98.00;;;;;;5036601;28;20025;-66
2022/02/17 03:02:46;;;;;;;0.55;0.50;;;11.00;98.00;;;;;;5030792;28;20437;-67
2022/02/17 03:05:12;;;;;;;0.50;0.50;;;11.00;98.00;;;;;;5032268;28;20040;-66
2022/02/17 03:07:39;;;;;;;0.55;0.50;;;10.90;98.00;;;;;;5035965;28;20029;-66
2022/02/17 03:10:06;;;;;;;0.50;0.50;;;10.90;98.00;;;;;;5036497;28;20021;-67
2022/02/17 03:12:33;;;;;;;0.50;0.50;;;10.90;98.00;;;;;;5035774;28;20419;-68
2022/02/17 03:14:59;;;;;;;0.60;0.50;;;10.90;98.00;;;;;;5035961;28;20021;-67
2022/02/17 03:17:28;;;;;;;0.60;0.60;;;11.00;98.00;;;;;;5035825;28;20577;-66
2022/02/17 03:19:53;;;;;;;0.60;0.50;;;11.00;98.00;;;;;;5028748;28;20033;-67
2022/02/17 03:22:19;;;;;;;0.50;0.50;;;11.00;98.00;;;;;;5036227;28;20029;-68
2022/02/17 03:24:45;;;;;;;1.20;0.60;;;11.00;98.00;;;;;;5033298;28;20049;-67
2022/02/17 03:27:10;;;;;;;0.50;0.50;;;11.00;98.00;;;;;;5027541;28;20022;-68
2022/02/17 03:29:38;;;;;;;0.70;0.50;;;10.90;98.00;;;;;;5035580;28;20029;-67
2022/02/17 03:32:04;;;;;;;1.02;0.75;;;10.90;98.00;;;;;;5034276;28;20061;-66
2022/02/17 03:34:30;;;;;;;1.05;0.50;;;11.00;98.00;;;;;;5030688;28;20049;-67
2022/02/17 03:36:56;;;;;;;0.50;0.50;;;11.10;98.00;;;;;;5035578;28;20037;-67
2022/02/17 03:39:22;;;;;;;0.50;0.50;;;11.10;98.00;;;;;;5034081;28;20053;-67
2022/02/17 03:41:47;;;;;;;0.52;0.50;;;11.10;98.00;;;;;;5035859;28;20037;-66
2022/02/17 03:44:14;;;;;;;1.98;0.50;;;11.20;98.00;;;;;;5035171;28;20075;-67
2022/02/17 03:46:41;;;;;;;0.50;0.50;;;11.20;98.00;;;;;;5033476;28;20029;-67
2022/02/17 03:49:07;;;;;;;0.85;0.60;;;11.20;98.00;;;;;;5033916;28;20041;-67
2022/02/17 03:51:32;;;;;;;0.93;0.65;;;11.20;98.00;;;;;;5033868;28;20017;-67
2022/02/17 03:53:58;;;;;;;1.13;0.50;;;11.20;98.00;;;;;;5035209;28;20049;-67
2022/02/17 03:56:23;;;;;;;0.73;0.60;;;11.20;98.00;;;;;;5035129;28;20049;-67
2022/02/17 03:59:01;;;;;;;0.52;0.50;;;11.20;98.00;;;;;;5035597;28;20034;-67
2022/02/17 04:01:28;;;;;;;0.50;0.50;;;11.20;98.00;;;;;;5035002;28;20018;-67
2022/02/17 04:03:53;;;;;;;0.70;0.55;;;11.20;98.00;;;;;;5030755;28;20116;-67
2022/02/17 04:06:19;;;;;;;0.57;0.50;;;11.20;98.00;;;;;;5035223;28;20151;-66
2022/02/17 04:08:45;;;;;;;0.73;0.50;;;11.20;98.00;;;;;;5034151;28;20396;-67
2022/02/17 04:11:11;;;;;;;1.00;0.68;;;11.10;98.00;;;;;;5035380;28;20096;-66
2022/02/17 04:13:37;;;;;;;1.30;0.60;;;11.10;98.00;;;;;;5034822;28;20099;-66
2022/02/17 04:16:04;;;;;;;0.73;0.50;;;11.00;98.00;;;;;;5032574;28;20021;-66
2022/02/17 04:18:29;;;;;;;1.08;0.68;;;11.00;98.00;;;;;;5033461;28;20029;-67
2022/02/17 04:20:55;;;;;;;0.55;0.50;;;11.00;98.00;;;;;;5034915;28;20338;-66
2022/02/17 04:23:21;;;;;;;0.50;0.50;;;11.00;98.00;;;;;;5035417;28;20041;-67
2022/02/17 04:25:47;;;;;;;1.55;1.13;;;10.90;98.00;;;;;;5034508;28;20041;-67
2022/02/17 04:28:12;;;;;;;0.77;0.50;;;11.00;98.00;;;;;;5025564;28;20034;-66
2022/02/17 04:30:38;;;;;;;0.60;0.60;;;11.00;98.00;;;;;;5043510;28;20034;-65
2022/02/17 04:33:07;;;;;;;0.65;0.50;;;11.00;98.00;;;;;;5034823;28;20065;-66
2022/02/17 04:35:32;;;;;;;0.63;0.50;;;10.90;98.00;;;;;;5034150;28;20033;-67
2022/02/17 04:37:58;;;;;;;0.57;0.52;;;10.90;98.00;;;;;;5032462;28;20026;-67
2022/02/17 04:42:17;;;;;;;0.60;0.60;;;11.00;98.00;;;;;;5039192;28;20087;-67
2022/02/17 04:43:10;;;;;;;0.80;0.50;;;11.00;98.00;;;;;;5034821;28;20053;-67
2022/02/17 04:45:36;;;;;;;0.77;0.60;;;11.10;98.00;;;;;;5032476;28;20041;-66
2022/02/17 04:48:06;;;;;;;1.02;0.70;;;11.10;98.00;;;;;;5036250;28;20034;-66
2022/02/17 04:50:32;;;;;;;0.60;0.60;;;11.20;98.00;;;;;;5036243;28;20025;-67
2022/02/17 04:52:59;;;;;;;2.75;1.48;;;11.20;98.00;;;;;;5032563;28;20017;-67
2022/02/17 04:55:25;;;;;;;0.85;0.50;;;11.20;98.00;;;;;;5028684;28;20025;-67
2022/02/17 04:57:50;;;;;;;0.90;0.70;;;11.20;98.00;;;;;;5045976;28;20036;-67
2022/02/17 05:00:17;;;;;;;0.65;0.52;;;11.10;98.00;;;;;;5040193;28;20029;-67
2022/02/17 05:02:42;;;;;;;0.95;0.60;;;11.20;97.90;;;;;;5036727;28;20037;-67
2022/02/17 05:05:08;;;;;;;1.10;0.60;;;11.20;97.90;;;;;;5036719;28;20021;-67
2022/02/17 05:07:34;;;;;;;1.10;0.70;;;11.20;97.80;;;;;;5036769;28;20033;-66
2022/02/17 05:10:00;;;;;;;0.90;0.60;;;11.20;97.60;;;;;;5039776;28;20327;-67
2022/02/17 05:12:26;;;;;;;0.73;0.60;;;11.20;97.60;;;;;;5038504;28;20473;-66
2022/02/17 05:14:51;;;;;;;0.88;0.60;;;11.20;97.50;;;;;;5038255;28;20021;-67
2022/02/17 05:17:17;;;;;;;0.65;0.60;;;11.20;97.40;;;;;;5038634;28;20029;-68
2022/02/17 05:19:44;;;;;;;0.85;0.63;;;11.10;97.50;;;;;;5036610;28;20033;-67
2022/02/17 05:22:09;;;;;;;0.60;0.60;;;11.10;97.50;;;;;;5038649;28;20033;-68
2022/02/17 05:24:35;;;;;;;1.83;0.85;;;11.10;97.30;;;;;;5041437;28;20304;-67
2022/02/17 05:27:01;;;;;;;0.95;0.50;;;11.20;97.10;;;;;;5040639;28;20064;-67
2022/02/17 05:29:27;;;;;;;1.70;0.70;;;11.30;97.00;;;;;;5038594;28;20030;-67
2022/02/17 05:31:53;;;;;;;1.83;0.70;;;11.30;97.00;;;;;;5034697;28;20035;-67
2022/02/17 05:34:18;;;;;;;1.20;0.60;;;11.20;97.40;;;;;;5035555;28;20103;-66
2022/02/17 05:36:44;;;;;;;1.40;0.70;;;10.90;98.00;;;;;;5035544;28;20079;-66
2022/02/17 05:39:13;;;;;;;1.23;0.68;;;10.80;98.00;;;;;;5037035;28;20064;-66
2022/02/17 05:41:39;;;;;;;0.70;0.60;;;10.80;98.00;;;;;;5036863;28;20037;-66
2022/02/17 05:44:05;;;;;;;1.98;0.82;;;10.80;98.00;;;;;;5038218;28;20319;-68
2022/02/17 05:46:32;;;;;;;0.80;0.70;;;10.80;98.00;;;;;;5036937;28;20419;-68
2022/02/17 05:48:58;;;;;;;1.10;0.70;;;10.90;98.00;;;;;;5032132;28;20108;-67
2022/02/17 05:51:27;;;;;;;1.38;0.70;;;11.00;97.60;;;;;;5037942;28;20112;-66
2022/02/17 05:53:53;;;;;;;1.42;0.70;;;11.10;97.30;;;;;;5026383;28;20104;-68
2022/02/17 05:56:19;;;;;;;0.95;0.60;;;11.10;97.30;;;;;;5038427;28;20442;-66
2022/02/17 05:58:44;;;;;;;1.25;0.70;;;11.10;97.40;;;;;;5037361;28;20065;-67
2022/02/17 06:01:10;;;;;;;0.68;0.65;;;10.90;97.90;;;;;;5036698;28;20386;-67
2022/02/17 06:03:36;;;;;;;1.10;0.70;;;10.80;98.00;;;;;;5027392;28;20309;-67
2022/02/17 06:06:02;;;;;;;0.68;0.60;;;10.80;98.00;;;;;;5037558;28;20026;-67
2022/02/17 06:08:27;;;;;;;1.38;0.70;;;10.80;98.00;;;;;;5030180;28;20041;-67
2022/02/17 06:10:53;;;;;;;2.05;1.00;;;10.80;98.00;;;;;;5036223;28;20026;-67
2022/02/17 06:13:19;;;;;;;2.63;1.27;;;10.70;98.00;;;;;;5027772;28;20340;-67
2022/02/17 06:15:44;;;;;;;3.63;2.13;;;10.70;98.00;;;;;;5037766;28;20028;-67
2022/02/17 06:18:10;;;;;;;4.78;1.85;;;10.60;98.00;;;;;;5036677;28;20022;-67
2022/02/17 06:20:36;;;;;;;8.45;3.83;;;10.50;98.00;;;;;;5037588;28;20037;-67
2022/02/17 06:23:02;;;;;;;3.15;1.48;;;10.30;98.00;;;;;;5037687;28;20025;-67
2022/02/17 06:25:28;;;;;;;1.48;0.98;;;10.20;98.00;;;;;;5036737;28;20029;-66
2022/02/17 06:27:58;;;;;;;0.60;0.60;;;10.10;98.00;;;;;;5037930;28;20094;-67
2022/02/17 06:30:24;;;;;;;1.23;0.80;;;10.00;98.00;;;;;;5037535;28;20049;-67
2022/02/17 06:32:52;;;;;;;0.82;0.55;;;9.90;98.00;;;;;;5035341;28;20500;-67
2022/02/17 06:35:19;;;;;;;2.80;1.02;;;9.90;98.00;;;;;;5037559;28;20032;-67
2022/02/17 06:37:46;;;;;;;2.05;1.10;;;9.90;98.00;;;;;;5037593;28;20066;-67
2022/02/17 06:40:12;;;;;;;2.38;1.13;;;9.90;98.00;;;;;;5032798;28;20028;-67
2022/02/17 06:42:38;;;;;;;2.50;1.30;;;9.90;98.00;;;;;;5018747;28;20029;-67
2022/02/17 06:45:04;;;;;;;2.58;0.73;;;9.90;98.00;;;;;;5017886;28;20331;-67
2022/02/17 06:47:30;;;;;;;3.90;1.30;;;10.10;98.00;;;;;;5028632;28;20033;-67
2022/02/17 06:49:56;;;;;;;2.40;1.15;;;10.10;98.00;;;;;;5037547;28;20738;-67
2022/02/17 06:52:22;;;;;;;2.78;1.00;;;10.10;98.00;;;;;;5037136;28;20053;-67
2022/02/17 06:54:48;;;;;;;3.67;1.33;;;10.20;98.00;;;;;;5036800;28;20060;-67
2022/02/17 06:57:20;;;;;;;2.25;1.00;;;10.30;98.00;;;;;;5037300;28;20084;-67
2022/02/17 06:59:46;;;;;;;3.53;1.17;;;10.30;98.00;;;;;;5036221;28;20029;-67
2022/02/17 07:02:13;;;;;;;3.70;1.00;;;10.30;98.00;;;;;;5037100;28;20040;-67
2022/02/17 07:04:39;;;;;;;1.95;1.00;;;10.30;98.00;;;;;;5035187;28;20051;-67
2022/02/17 07:07:04;;;;;;;2.00;1.00;;;10.30;98.00;;;;;;5036733;28;20033;-67
2022/02/17 07:09:30;;;;;;;2.40;1.10;;;10.10;98.00;;;;;;5037053;28;20036;-67
2022/02/17 07:11:56;;;;;;;2.03;1.10;;;10.00;97.80;;;;;;5036784;28;20441;-67
2022/02/17 07:14:23;;;;;;;2.42;1.00;;;9.70;96.40;;;;;;5036910;28;20316;-68
2022/02/17 07:16:53;;;;;;;2.42;1.30;;;9.50;95.10;;;;;;5036517;28;20022;-68
2022/02/17 07:19:20;;;;;;;2.05;1.15;;;9.40;93.90;;;;;;5035097;28;20034;-68
2022/02/17 07:21:46;;;;;;;3.70;1.20;;;9.30;92.90;;;;;;5035792;28;20498;-69
2022/02/17 07:24:12;;;;;;;3.63;1.20;;;9.20;91.70;;;;;;5036832;28;20093;-69
2022/02/17 07:26:38;;;;;;;6.90;2.25;;;9.20;90.60;;;;;;5036746;28;20029;-69
2022/02/17 07:29:03;;;;;;;22.20;7.13;;;9.10;89.60;;;;;;5036832;28;20079;-69
2022/02/17 07:31:29;;;;;;;6.80;2.25;;;9.10;89.30;;;;;;5023704;28;20038;-68
2022/02/17 07:33:54;;;;;;;5.13;2.22;;;9.10;89.10;;;;;;5019511;28;20051;-68
2022/02/17 07:36:20;;;;;;;8.27;2.60;;;9.10;88.80;;;;;;5036573;28;20029;-68
2022/02/17 07:38:46;;;;;;;5.82;2.13;;;9.10;88.20;;;;;;5031803;28;20079;-68
2022/02/17 07:41:12;;;;;;;6.10;3.15;;;9.10;87.60;;;;;;5032831;28;20032;-69
2022/02/17 07:43:41;;;;;;;9.57;5.00;;;9.10;87.80;;;;;;5033306;28;20034;-69
2022/02/17 07:46:07;;;;;;;5.65;2.08;;;9.00;87.30;;;;;;5036473;28;20086;-69
2022/02/17 07:48:33;;;;;;;3.63;1.98;;;9.00;87.40;;;;;;5025483;28;20030;-69
2022/02/17 07:50:59;;;;;;;4.38;2.30;;;8.90;87.50;;;;;;5016634;28;20022;-69
2022/02/17 07:53:31;;;;;;;5.28;1.80;;;8.90;88.10;;;;;;5022859;28;20029;-69
2022/02/17 07:55:57;;;;;;;3.58;1.33;;;8.80;89.70;;;;;;5036091;28;20029;-69
2022/02/17 07:58:23;;;;;;;3.80;1.30;;;8.80;92.60;;;;;;5025557;28;20026;-69
2022/02/17 08:00:50;;;;;;;6.45;1.85;;;8.70;94.80;;;;;;5033204;28;20417;-69
2022/02/17 08:03:17;;;;;;;7.18;2.55;;;8.60;96.10;;;;;;5030045;28;20058;-69
2022/02/17 08:05:45;;;;;;;5.55;1.58;;;8.60;97.10;;;;;;5016396;28;20076;-68
2022/02/17 08:08:11;;;;;;;4.82;1.40;;;8.60;98.00;;;;;;5022637;28;20037;-68
2022/02/17 08:10:41;;;;;;;5.93;2.17;;;8.50;98.00;;;;;;5035727;28;20026;-69
2022/02/17 08:13:07;;;;;;;5.00;1.73;;;8.50;98.00;;;;;;5035915;28;20029;-68
2022/02/17 08:15:33;;;;;;;8.05;1.95;;;8.50;98.00;;;;;;5035885;28;20017;-67
2022/02/17 08:17:59;;;;;;;6.47;1.77;;;8.60;98.00;;;;;;5034825;28;20029;-67
2022/02/17 08:20:25;;;;;;;6.75;1.80;;;8.60;98.00;;;;;;5035028;28;20095;-67
2022/02/17 08:22:53;;;;;;;8.13;2.30;;;8.60;98.00;;;;;;5031167;28;20025;-68
2022/02/17 08:25:20;;;;;;;6.60;2.15;;;8.60;98.00;;;;;;5015252;28;20026;-67
2022/02/17 08:27:49;;;;;;;6.03;2.13;;;8.70;98.00;;;;;;5029097;28;20053;-67
2022/02/17 08:30:15;;;;;;;9.90;2.20;;;8.80;98.00;;;;;;5035807;28;20025;-66
2022/02/17 08:32:44;;;;;;;6.32;1.85;;;8.90;98.00;;;;;;5032368;28;20029;-66
2022/02/17 08:35:11;;;;;;;10.50;3.03;;;8.90;98.00;;;;;;5015922;28;20038;-66
2022/02/17 08:37:38;;;;;;;6.97;3.20;;;9.00;98.00;;;;;;5027250;28;20026;-66
2022/02/17 08:40:05;;;;;;;10.40;2.10;;;9.00;98.00;;;;;;5035732;28;20025;-68
2022/02/17 08:42:31;;;;;;;7.82;2.13;;;9.10;98.00;;;;;;5034484;28;20057;-67
2022/02/17 08:44:56;;;;;;;8.93;2.05;;;9.10;98.00;;;;;;5035695;28;20607;-67
2022/02/17 08:47:22;;;;;;;8.52;2.72;;;9.10;98.00;;;;;;5034835;28;20053;-67
2022/02/17 08:49:48;;;;;;;8.70;2.78;;;9.10;98.00;;;;;;5034775;28;20036;-66
2022/02/17 08:52:14;;;;;;;15.30;3.80;;;9.10;98.00;;;;;;5033624;28;20024;-67
2022/02/17 08:54:41;;;;;;;6.68;2.50;;;9.20;98.00;;;;;;5035799;28;20030;-68
2022/02/17 08:57:07;;;;;;;14.70;2.85;;;9.20;98.00;;;;;;5030563;28;20018;-67
2022/02/17 08:59:32;;;;;;;9.30;1.95;;;9.20;97.50;;;;;;5034453;28;20117;-67
2022/02/17 09:01:58;;;;;;;10.10;2.85;;;9.20;97.60;;;;;;5035077;28;20036;-67
2022/02/17 09:04:23;;;;;;;9.82;2.40;;;9.30;96.80;;;;;;5033201;28;20022;-66
2022/02/17 09:06:50;;;;;;;12.07;3.22;;;9.30;96.10;;;;;;5034885;28;20028;-66
2022/02/17 09:09:16;;;;;;;9.48;3.22;;;9.40;96.00;;;;;;5034432;28;20022;-66
2022/02/17 09:11:42;;;;;;;12.63;2.45;;;9.40;96.00;;;;;;5026845;28;20033;-67
2022/02/17 09:14:08;;;;;;;11.90;2.50;;;9.40;95.70;;;;;;5028572;28;20060;-67
2022/02/17 09:16:34;;;;;;;8.18;2.45;;;9.50;95.30;;;;;;5015727;28;20029;-67
2022/02/17 09:19:00;;;;;;;13.00;2.55;;;9.60;94.40;;;;;;5020895;28;20041;-69
2022/02/17 09:21:26;;;;;;;11.85;3.05;;;9.70;93.60;;;;;;5035829;28;20025;-67
2022/02/17 09:23:52;;;;;;;21.88;4.50;;;9.70;93.60;;;;;;5038206;28;20021;-67
2022/02/17 09:26:18;;;;;;;10.95;2.92;;;9.90;93.70;;;;;;5037346;28;20030;-66
2022/02/17 09:28:48;;;;;;;8.80;2.25;;;10.00;92.40;;;;;;5038845;28;20090;-67
2022/02/17 09:31:18;;;;;;;10.38;2.50;;;10.00;92.40;;;;;;5028595;28;20307;-67
2022/02/17 09:33:49;;;;;;;12.18;3.03;;;9.70;91.30;;;;;;5017955;28;20038;-67
2022/02/17 09:36:15;;;;;;;13.18;2.80;;;9.60;90.80;;;;;;5020365;28;20045;-67
2022/02/17 09:38:41;;;;;;;12.73;2.95;;;9.50;90.80;;;;;;5018081;28;20115;-67
2022/02/17 09:41:08;;;;;;;10.88;3.58;;;9.50;91.50;;;;;;5025591;28;20040;-67
2022/02/17 09:43:35;;;;;;;13.20;4.38;;;9.50;92.30;;;;;;5038809;28;20314;-67
2022/02/17 09:46:01;;;;;;;12.00;2.90;;;9.50;94.40;;;;;;5026366;28;20033;-67
2022/02/17 09:48:28;;;;;;;8.38;2.40;;;9.60;95.60;;;;;;5017475;28;20034;-67
2022/02/17 09:50:54;;;;;;;11.00;2.60;;;9.70;95.40;;;;;;5018830;28;20315;-66
2022/02/17 09:53:20;;;;;;;11.73;2.80;;;10.40;93.20;;;;;;5018892;28;20026;-67
2022/02/17 09:55:46;;;;;;;12.35;2.90;;;10.90;91.10;;;;;;5019352;28;20029;-66
2022/02/17 09:58:14;;;;;;;12.75;3.05;;;10.50;89.40;;;;;;5018699;28;20029;-66
2022/02/17 10:00:40;;;;;;;11.18;3.10;;;10.20;89.70;;;;;;5025020;28;20528;-67
2022/02/17 10:03:27;;;;;;;15.85;3.58;;;10.40;87.30;;;;;;5036154;28;20029;-67
2022/02/17 10:06:22;;;;;;;15.93;2.95;;;10.20;87.60;;;;;;5031043;28;20072;-67
2022/02/17 10:08:49;;;;;;;13.18;2.85;;;10.70;86.70;;;;;;5031918;28;20445;-66
2022/02/17 10:11:29;;;;;;;13.63;3.60;;;10.80;85.30;;;;;;5038182;28;20067;-67
2022/02/17 10:14:09;;;;;;;12.30;3.25;;;11.00;84.90;;;;;;5036249;28;20022;-67
2022/02/17 10:16:53;;;;;;;13.60;3.90;;;10.80;83.90;;;;;;5038176;28;20056;-66
2022/02/17 10:19:20;;;;;;;14.00;3.38;;;11.40;80.60;;;;;;5023004;28;20033;-67
2022/02/17 10:21:46;;;;;;;11.52;3.03;;;11.80;79.80;;;;;;5024969;28;20060;-67
2022/02/17 10:24:35;;;;;;;12.38;3.05;;;12.10;78.40;;;;;;5037797;28;20041;-66
2022/02/17 10:27:14;;;;;;;16.27;2.92;;;12.00;78.10;;;;;;5037953;28;20156;-67
2022/02/17 10:29:56;;;;;;;15.32;3.65;;;11.30;78.80;;;;;;5033592;28;20025;-66
2022/02/17 10:32:21;;;;;;;15.95;3.10;;;11.20;80.10;;;;;;5036943;28;20025;-66
2022/02/17 10:35:05;;;;;;;13.02;3.58;;;11.00;80.50;;;;;;5036258;28;20384;-66
2022/02/17 10:37:51;;;;;;;15.03;3.17;;;10.70;81.00;;;;;;5037589;28;20024;-67
2022/02/17 10:40:26;;;;;;;13.98;3.40;;;10.60;81.70;;;;;;5037461;28;20386;-67
2022/02/17 10:43:05;;;;;;;;;;;10.60;81.70;;;;;;5037853;28;20029;-67
2022/02/17 10:45:31;;;;;;;15.65;3.88;;;10.90;80.30;;;;;;5022503;28;19909;-67
2022/02/17 10:48:23;;;;;;;10.93;2.33;;;11.60;79.10;;;;;;5017129;28;20101;-67
2022/02/17 10:51:08;;;;;;;12.25;3.38;;;12.30;76.90;;;;;;5037382;28;20030;-67
2022/02/17 10:53:42;;;;;;;14.15;3.05;;;13.00;74.20;;;;;;5020746;28;20084;-67
2022/02/17 10:56:15;;;;;;;;;;;13.20;71.40;;;;;;5018182;28;20025;-67
2022/02/17 10:58:50;;;;;;;10.35;2.47;;;13.10;71.40;;;;;;5034943;28;19905;-67
2022/02/17 11:01:18;;;;;;;11.25;2.97;;;12.60;70.30;;;;;;5037187;28;20318;-65
2022/02/17 11:03:44;;;;;;;10.63;2.75;;;12.20;70.20;;;;;;5017990;28;20054;-67
2022/02/17 11:06:12;;;;;;;12.10;3.03;;;11.60;71.60;;;;;;5027760;28;20037;-67
2022/02/17 11:08:39;;;;;;;14.25;3.15;;;11.20;72.10;;;;;;5021843;28;20415;-66
2022/02/17 11:11:05;;;;;;;15.32;3.78;;;11.10;72.90;;;;;;5021488;28;20366;-66
2022/02/17 11:13:33;;;;;;;19.25;3.25;;;10.90;74.80;;;;;;5036901;28;20407;-67
2022/02/17 11:16:02;;;;;;;16.02;3.70;;;11.00;75.60;;;;;;5037002;28;20036;-67
2022/02/17 11:18:29;;;;;;;14.63;2.88;;;11.20;75.40;;;;;;5022631;28;20360;-66
2022/02/17 11:20:56;;;;;;;16.10;3.40;;;11.50;75.30;;;;;;5026798;28;20036;-66
2022/02/17 11:23:34;;;;;;;14.02;3.25;;;11.90;75.10;;;;;;5036754;28;20033;-66
2022/02/17 11:26:01;;;;;;;14.73;3.22;;;12.10;74.60;;;;;;5036022;28;20033;-65
2022/02/17 11:28:50;;;;;;;18.48;3.25;;;12.00;74.70;;;;;;5036780;28;20051;-65
2022/02/17 11:31:17;;;;;;;16.45;4.03;;;11.80;75.00;;;;;;5023697;28;20423;-66
2022/02/17 11:33:59;;;;;;;15.80;3.22;;;11.40;76.40;;;;;;5016544;28;20060;-67
2022/02/17 11:36:27;;;;;;;12.70;3.20;;;12.30;75.60;;;;;;5024492;28;20022;-68
2022/02/17 11:39:06;;;;;;;11.77;3.00;;;12.00;73.80;;;;;;5035873;28;20025;-67
2022/02/17 11:41:36;;;;;;;11.95;3.08;;;12.40;73.70;;;;;;5036541;28;20025;-68
2022/02/17 11:44:18;;;;;;;15.52;3.10;;;12.50;73.40;;;;;;5035043;28;20021;-67
2022/02/17 11:46:44;;;;;;;17.77;3.45;;;12.80;72.80;;;;;;5036482;28;20516;-67
2022/02/17 11:49:11;;;;;;;11.35;2.55;;;12.90;70.90;;;;;;5024282;28;20026;-66
2022/02/17 11:51:37;;;;;;;12.98;2.78;;;12.30;72.60;;;;;;5016521;28;20463;-66
2022/02/17 11:54:20;;;;;;;15.30;3.40;;;12.60;72.50;;;;;;5025614;28;20029;-66
2022/02/17 11:56:47;;;;;;;13.75;3.38;;;13.00;72.40;;;;;;5036230;28;20354;-66
2022/02/17 11:59:24;;;;;;;17.33;3.53;;;13.00;71.30;;;;;;5031305;28;20533;-66
2022/02/17 12:01:51;;;;;;;12.60;3.30;;;12.10;73.50;;;;;;5034448;28;20411;-67
2022/02/17 12:04:22;;;;;;;13.43;3.40;;;11.80;74.70;;;;;;5035037;28;20032;-66
2022/02/17 12:06:56;;;;;;;13.05;3.38;;;11.60;74.80;;;;;;5030825;28;20049;-67
2022/02/17 12:09:47;;;;;;;16.38;3.97;;;11.60;75.00;;;;;;5020155;28;20029;-67
2022/02/17 12:12:13;;;;;;;16.80;4.40;;;11.30;76.20;;;;;;5036300;28;20319;-66
2022/02/17 12:14:48;;;;;;;20.10;3.67;;;11.10;77.50;;;;;;5035648;28;20028;-66
2022/02/17 12:17:14;;;;;;;16.40;3.50;;;11.20;77.10;;;;;;5035986;28;20068;-66
2022/02/17 12:19:40;;;;;;;16.83;3.67;;;11.50;76.90;;;;;;5034662;28;20053;-66
2022/02/17 12:22:08;;;;;;;17.35;4.10;;;11.70;75.80;;;;;;5034905;28;20026;-67
2022/02/17 12:24:34;;;;;;;17.27;4.47;;;11.20;77.80;;;;;;5036042;28;20026;-66
2022/02/17 12:27:00;;;;;;;17.42;3.85;;;11.00;77.80;;;;;;5035986;28;20021;-66
2022/02/17 12:29:33;;;;;;;13.65;3.72;;;11.00;78.20;;;;;;5035497;28;20053;-66
2022/02/17 12:32:04;;;;;;;22.83;4.53;;;11.00;77.30;;;;;;5036039;28;20063;-66
2022/02/17 12:34:31;;;;;;;15.60;2.97;;;11.00;77.90;;;;;;5034081;28;20152;-66
2022/02/17 12:36:57;;;;;;;13.70;3.58;;;11.10;77.70;;;;;;5034342;28;20018;-66
2022/02/17 12:39:30;;;;;;;14.68;3.22;;;11.10;77.50;;;;;;5035748;28;20032;-66
2022/02/17 12:42:02;;;;;;;21.17;3.53;;;11.00;77.50;;;;;;5035453;28;20317;-66
2022/02/17 12:44:35;;;;;;;16.80;3.67;;;11.10;77.10;;;;;;5035563;28;20078;-66
2022/02/17 12:47:08;;;;;;;13.00;3.80;;;11.60;77.30;;;;;;5035682;28;20336;-66
2022/02/17 12:49:36;;;;;;;18.20;4.70;;;12.20;75.60;;;;;;5034188;28;20140;-66